createdAt,value
2023-05-11T00:00:25.000Z,101205.16
2023-05-11T00:02:53.078Z,101198.72
2023-05-11T00:05:21.178Z,101199.34
2023-05-11T00:07:50.271Z,101190.28
2023-05-11T00:10:18.546Z,101188.94
2023-05-11T00:12:46.652Z,101201.97
2023-05-11T00:15:16.025Z,101194.16
2023-05-11T00:17:44.216Z,101202.13
2023-05-11T00:20:12.669Z,101202.94
2023-05-11T00:22:41.515Z,101201.00
2023-05-11T00:25:11.280Z,101208.00
2023-05-11T00:27:39.444Z,101199.81
2023-05-11T00:30:08.953Z,101213.81
2023-05-11T00:32:38.271Z,101217.16
2023-05-11T00:35:07.040Z,101207.56
2023-05-11T00:37:34.983Z,101209.06
2023-05-11T00:40:03.084Z,101202.97
2023-05-11T00:42:30.994Z,101209.19
2023-05-11T00:44:59.659Z,101204.72
2023-05-11T00:47:27.794Z,101207.16
2023-05-11T00:49:57.192Z,101202.25
2023-05-11T00:52:25.816Z,101207.09
2023-05-11T00:54:53.745Z,101206.25
2023-05-11T00:57:22.367Z,101201.38
2023-05-11T00:59:51.156Z,101198.53
2023-05-11T01:02:19.510Z,101201.56
2023-05-11T01:04:47.522Z,101200.28
2023-05-11T01:07:22.914Z,101178.53
2023-05-11T01:10:01.608Z,101194.00
2023-05-11T01:12:36.474Z,101198.31
2023-05-11T01:15:10.215Z,101198.69
2023-05-11T01:17:47.331Z,101193.63
2023-05-11T01:20:19.753Z,101196.63
2023-05-11T01:23:03.607Z,101200.91
2023-05-11T01:25:52.827Z,101206.97
2023-05-11T01:28:47.776Z,101202.94
2023-05-11T01:31:17.061Z,101202.47
2023-05-11T01:33:49.720Z,101191.81
2023-05-11T01:36:20.309Z,101193.38
2023-05-11T01:38:51.140Z,101196.69
2023-05-11T01:41:22.066Z,101192.25
2023-05-11T01:43:55.928Z,101205.72
2023-05-11T01:46:28.008Z,101185.78
2023-05-11T01:48:59.505Z,101207.97
2023-05-11T01:51:31.665Z,101200.66
2023-05-11T01:54:01.767Z,101197.44
2023-05-11T01:56:30.546Z,101192.63
2023-05-11T01:58:59.337Z,101190.84
2023-05-11T02:01:30.193Z,101197.06
2023-05-11T02:04:00.655Z,101195.50
2023-05-11T02:06:32.643Z,101186.28
2023-05-11T02:09:02.462Z,101192.34
2023-05-11T02:11:32.167Z,101204.66
2023-05-11T02:14:01.952Z,101200.00
2023-05-11T02:16:33.343Z,101202.13
2023-05-11T02:19:01.750Z,101196.53
2023-05-11T02:21:33.028Z,101201.78
2023-05-11T02:24:03.347Z,101190.78
2023-05-11T02:26:31.257Z,101202.81
2023-05-11T02:28:59.196Z,101195.06
2023-05-11T02:31:30.220Z,101199.38
2023-05-11T02:34:07.365Z,101199.38
2023-05-11T02:36:40.091Z,101183.34
2023-05-11T02:39:12.641Z,101186.91
2023-05-11T02:41:44.592Z,101198.91
2023-05-11T02:44:16.974Z,101202.47
2023-05-11T02:46:48.606Z,101208.59
2023-05-11T02:49:22.301Z,101191.78
2023-05-11T02:51:51.769Z,101161.50
2023-05-11T02:54:20.750Z,101208.84
2023-05-11T02:56:49.265Z,101214.97
2023-05-11T02:59:17.596Z,101214.25
2023-05-11T03:13:51.272Z,101222.69
2023-05-11T03:16:21.507Z,101229.72
2023-05-11T03:18:50.485Z,101229.28
2023-05-11T03:21:21.458Z,101226.97
2023-05-11T03:23:50.615Z,101231.38
2023-05-11T03:26:20.148Z,101234.19
2023-05-11T03:28:48.975Z,101215.75
2023-05-11T03:31:19.892Z,101231.97
2023-05-11T03:33:47.862Z,101230.41
2023-05-11T03:36:16.933Z,101236.41
2023-05-11T03:38:47.689Z,101233.00
2023-05-11T03:41:18.419Z,101232.25
2023-05-11T03:43:50.345Z,101246.63
2023-05-11T03:46:23.718Z,101248.38
2023-05-11T03:48:52.428Z,101246.31
2023-05-11T03:51:20.999Z,101243.03
2023-05-11T03:53:49.047Z,101244.50
2023-05-11T03:56:16.997Z,101248.78
2023-05-11T03:58:45.848Z,101255.13
2023-05-11T04:01:14.381Z,101249.97
2023-05-11T04:03:50.696Z,101257.63
2023-05-11T04:06:19.619Z,101265.25
2023-05-11T04:08:47.657Z,101257.28
2023-05-11T04:11:15.716Z,101262.75
2023-05-11T04:13:43.698Z,101257.72
2023-05-11T04:16:11.663Z,101270.06
2023-05-11T04:18:39.628Z,101267.81
2023-05-11T04:21:08.964Z,101270.31
2023-05-11T04:23:37.158Z,101261.47
2023-05-11T04:26:05.251Z,101267.44
2023-05-11T04:28:33.175Z,101271.19
2023-05-11T04:31:01.108Z,101266.97
2023-05-11T04:33:29.040Z,101269.69
2023-05-11T04:35:58.827Z,101273.78
2023-05-11T04:38:28.449Z,101281.72
2023-05-11T04:40:56.409Z,101277.44
2023-05-11T04:43:24.308Z,101273.66
2023-05-11T04:45:52.891Z,101273.34
2023-05-11T04:48:21.167Z,101270.41
2023-05-11T04:50:49.329Z,101280.72
2023-05-11T04:53:17.279Z,101274.34
2023-05-11T04:55:46.579Z,101274.47
2023-05-11T04:58:14.565Z,101273.47
2023-05-11T05:00:42.527Z,101280.66
2023-05-11T05:03:10.542Z,101276.94
2023-05-11T05:05:38.514Z,101272.88
2023-05-11T05:08:07.406Z,101278.34
2023-05-11T05:10:35.401Z,101270.75
2023-05-11T05:13:04.687Z,101278.50
2023-05-11T05:15:32.654Z,101276.75
2023-05-11T05:18:00.625Z,101280.19
2023-05-11T05:20:28.699Z,101283.38
2023-05-11T05:22:56.671Z,101275.75
2023-05-11T05:25:24.757Z,101273.88
2023-05-11T05:27:52.643Z,101273.44
2023-05-11T05:30:22.003Z,101278.28
2023-05-11T05:32:49.967Z,101278.28
2023-05-11T05:35:17.931Z,101274.88
2023-05-11T05:37:45.928Z,101286.34
2023-05-11T05:40:14.133Z,101273.19
2023-05-11T05:42:42.076Z,101288.19
2023-05-11T05:45:13.866Z,101286.66
2023-05-11T05:47:44.046Z,101275.38
2023-05-11T05:50:12.793Z,101290.06
2023-05-11T05:52:40.716Z,101280.22
2023-05-11T05:55:09.274Z,101287.00
2023-05-11T05:57:37.169Z,101282.38
2023-05-11T06:00:05.770Z,101290.78
2023-05-11T06:02:33.766Z,101291.31
2023-05-11T06:05:03.162Z,101290.78
2023-05-11T06:07:31.166Z,101290.41
2023-05-11T06:09:59.069Z,101297.00
2023-05-11T06:12:27.110Z,101297.81
2023-05-11T06:14:55.066Z,101307.06
2023-05-11T06:17:23.156Z,101294.38
2023-05-11T06:19:51.215Z,101289.16
2023-05-11T06:22:20.567Z,101293.34
2023-05-11T06:24:48.528Z,101301.88
2023-05-11T06:27:18.228Z,101301.47
2023-05-11T06:29:47.025Z,101300.69
2023-05-11T06:32:14.906Z,101284.81
2023-05-11T06:34:42.804Z,101296.66
2023-05-11T06:37:10.732Z,101293.38
2023-05-11T06:39:40.012Z,101294.00
2023-05-11T06:42:08.206Z,101296.38
2023-05-11T06:44:36.280Z,101304.22
2023-05-11T06:47:04.236Z,101277.66
2023-05-11T06:49:32.212Z,101286.00
2023-05-11T06:52:00.116Z,101277.47
2023-05-11T06:54:28.078Z,101286.88
2023-05-11T06:56:57.342Z,101276.94
2023-05-11T06:59:25.254Z,101300.88
2023-05-11T07:01:53.149Z,101307.41
2023-05-11T07:04:21.096Z,101288.53
2023-05-11T07:06:49.109Z,101299.34
2023-05-11T07:09:17.077Z,101292.00
2023-05-11T07:11:45.077Z,101283.63
2023-05-11T07:14:14.463Z,101286.28
2023-05-11T07:16:43.275Z,101288.66
2023-05-11T07:19:11.809Z,101288.94
2023-05-11T07:21:39.894Z,101295.66
2023-05-11T07:24:08.153Z,101283.97
2023-05-11T07:26:36.151Z,101291.78
2023-05-11T07:29:04.178Z,101277.03
2023-05-11T07:31:33.996Z,101288.00
2023-05-11T07:34:01.987Z,101292.00
2023-05-11T07:36:30.086Z,101298.47
2023-05-11T07:38:59.611Z,101287.00
2023-05-11T07:41:27.859Z,101283.09
2023-05-11T07:43:56.145Z,101278.22
2023-05-11T07:46:24.207Z,101281.44
2023-05-11T07:49:03.416Z,101290.00
2023-05-11T07:51:35.948Z,101282.09
2023-05-11T07:54:04.020Z,101280.59
2023-05-11T07:56:32.060Z,101283.50
2023-05-11T07:59:00.110Z,101282.41
2023-05-11T08:01:28.132Z,101264.94
2023-05-11T08:03:57.519Z,101279.53
2023-05-11T08:06:25.546Z,101281.19
2023-05-11T08:08:53.543Z,101275.84
2023-05-11T08:11:21.771Z,101278.53
2023-05-11T08:13:49.779Z,101279.44
2023-05-11T08:16:18.302Z,101259.66
2023-05-11T08:18:46.493Z,101262.19
2023-05-11T08:21:16.163Z,101269.44
2023-05-11T08:23:45.267Z,101261.78
2023-05-11T08:26:13.397Z,101270.75
2023-05-11T08:28:41.389Z,101256.66
2023-05-11T08:31:09.382Z,101274.28
2023-05-11T08:33:38.842Z,101278.13
2023-05-11T08:36:08.932Z,101275.47
2023-05-11T08:38:38.355Z,101255.97
2023-05-11T08:41:07.829Z,101261.50
2023-05-11T08:43:36.727Z,101260.09
2023-05-11T08:46:07.479Z,101269.38
2023-05-11T08:48:36.315Z,101258.59
2023-05-11T08:51:04.663Z,101257.59
2023-05-11T08:53:32.802Z,101257.19
2023-05-11T08:56:05.696Z,101251.56
2023-05-11T08:58:37.405Z,101251.88
2023-05-11T09:01:06.732Z,101243.06
2023-05-11T09:03:36.774Z,101240.16
2023-05-11T09:06:07.454Z,101253.41
2023-05-11T09:08:37.220Z,101245.41
2023-05-11T09:11:06.877Z,101244.75
2023-05-11T09:13:35.037Z,101236.75
2023-05-11T09:16:02.978Z,101226.03
2023-05-11T09:18:31.054Z,101221.16
2023-05-11T09:20:59.027Z,101235.28
2023-05-11T09:23:27.715Z,101224.91
2023-05-11T09:25:56.060Z,101231.56
2023-05-11T09:28:26.982Z,101233.66
2023-05-11T09:30:55.488Z,101213.00
2023-05-11T09:33:24.828Z,101234.03
2023-05-11T09:35:54.086Z,101218.97
2023-05-11T09:38:23.254Z,101217.38
2023-05-11T09:40:53.109Z,101213.81
2023-05-11T09:43:22.801Z,101211.44
2023-05-11T09:45:53.355Z,101209.38
2023-05-11T09:48:29.561Z,101218.97
2023-05-11T09:51:02.670Z,101218.75
2023-05-11T09:53:43.329Z,101220.09
2023-05-11T09:56:12.139Z,101214.88
2023-05-11T09:58:48.509Z,101219.28
2023-05-11T10:01:19.762Z,101210.19
2023-05-11T10:03:49.729Z,101214.03
2023-05-11T10:06:20.023Z,101206.41
2023-05-11T10:08:48.820Z,101216.47
2023-05-11T10:11:16.837Z,101211.03
2023-05-11T10:13:45.897Z,101203.63
2023-05-11T10:16:16.400Z,101201.25
2023-05-11T10:18:45.954Z,101210.66
2023-05-11T10:21:16.803Z,101192.16
2023-05-11T10:23:44.912Z,101202.50
2023-05-11T10:26:14.187Z,101207.47
2023-05-11T10:28:42.635Z,101199.06
2023-05-11T10:31:11.250Z,101176.66
2023-05-11T10:33:39.777Z,101190.00
2023-05-11T10:36:10.285Z,101184.69
2023-05-11T10:38:38.345Z,101188.84
2023-05-11T10:41:17.921Z,101174.94
2023-05-11T10:44:04.616Z,101185.09
2023-05-11T10:46:50.453Z,101174.41
2023-05-11T10:49:44.954Z,101176.44
2023-05-11T10:52:38.228Z,101163.59
2023-05-11T10:55:14.650Z,101157.69
2023-05-11T10:57:58.450Z,101155.06
2023-05-11T11:01:16.688Z,101176.47
2023-05-11T11:03:57.331Z,101171.44
2023-05-11T11:06:26.057Z,101174.28
2023-05-11T11:09:00.055Z,101167.72
2023-05-11T11:11:32.910Z,101167.56
2023-05-11T11:14:03.866Z,101159.38
2023-05-11T11:16:31.889Z,101155.75
2023-05-11T11:19:37.236Z,101150.97
2023-05-11T11:22:05.710Z,101159.97
2023-05-11T11:24:48.060Z,101151.25
2023-05-11T11:27:16.059Z,101149.53
2023-05-11T11:30:17.438Z,101164.28
2023-05-11T11:32:46.445Z,101161.41
2023-05-11T11:35:49.848Z,101150.00
2023-05-11T11:38:19.427Z,101145.34
2023-05-11T11:40:52.806Z,101152.00
2023-05-11T11:43:22.055Z,101147.84
2023-05-11T11:45:54.830Z,101146.59
2023-05-11T11:48:24.788Z,101142.25
2023-05-11T11:51:04.272Z,101149.34
2023-05-11T11:54:02.118Z,101141.41
2023-05-11T11:56:43.722Z,101135.31
2023-05-11T11:59:16.203Z,101139.97
2023-05-11T12:01:46.006Z,101138.31
2023-05-11T12:04:46.179Z,101138.38
2023-05-11T12:07:16.371Z,101130.22
2023-05-11T12:09:47.292Z,101139.31
2023-05-11T12:12:18.889Z,101135.84
2023-05-11T12:14:49.467Z,101122.69
2023-05-11T12:17:25.794Z,101126.22
2023-05-11T12:19:53.781Z,101128.16
2023-05-11T12:22:25.853Z,101111.84
2023-05-11T12:24:59.544Z,101103.38
2023-05-11T12:27:29.670Z,101118.19
2023-05-11T12:29:58.700Z,101107.16
2023-05-11T12:32:28.544Z,101090.13
2023-05-11T12:35:01.420Z,101100.47
2023-05-11T12:37:30.036Z,101106.16
2023-05-11T12:39:58.622Z,101108.66
2023-05-11T12:42:27.786Z,101095.44
2023-05-11T12:44:57.433Z,101106.31
2023-05-11T12:47:25.589Z,101093.41
2023-05-11T12:49:53.669Z,101110.31
2023-05-11T12:52:24.988Z,101101.91
2023-05-11T12:54:53.936Z,101087.38
2023-05-11T12:57:26.515Z,101087.28
2023-05-11T13:00:12.831Z,101084.06
2023-05-11T13:02:52.100Z,101084.88
2023-05-11T13:05:24.954Z,101074.25
2023-05-11T13:07:58.929Z,101082.28
2023-05-11T13:10:27.100Z,101072.56
2023-05-11T13:12:56.233Z,101067.00
2023-05-11T13:15:28.664Z,101077.47
2023-05-11T13:17:59.282Z,101066.81
2023-05-11T13:20:29.599Z,101066.31
2023-05-11T13:23:08.675Z,101055.56
2023-05-11T13:25:53.288Z,101067.16
2023-05-11T13:28:23.491Z,101068.03
2023-05-11T13:30:59.603Z,101075.41
2023-05-11T13:33:27.765Z,101076.38
2023-05-11T13:35:56.011Z,101064.31
2023-05-11T13:38:23.947Z,101062.84
2023-05-11T13:40:51.883Z,101073.13
2023-05-11T13:43:19.823Z,101066.91
2023-05-11T13:45:47.750Z,101067.53
2023-05-11T13:48:17.743Z,101068.56
2023-05-11T13:50:46.032Z,101061.91
2023-05-11T13:53:14.059Z,101067.81
2023-05-11T13:55:42.634Z,101064.81
2023-05-11T13:58:10.660Z,101065.81
2023-05-11T14:00:40.137Z,101059.59
2023-05-11T14:03:08.280Z,101064.56
2023-05-11T14:05:39.344Z,101059.81
2023-05-11T14:08:07.401Z,101050.13
2023-05-11T14:10:35.313Z,101064.81
2023-05-11T14:13:03.205Z,101062.69
2023-05-11T14:15:31.158Z,101050.63
2023-05-11T14:17:59.378Z,101052.41
2023-05-11T14:20:27.380Z,101063.31
2023-05-11T14:22:57.204Z,101064.09
2023-05-11T14:25:25.578Z,101067.22
2023-05-11T14:27:55.551Z,101062.53
2023-05-11T14:30:24.120Z,101063.44
2023-05-11T14:32:53.422Z,101066.19
2023-05-11T14:35:22.360Z,101078.50
2023-05-11T14:37:50.240Z,101072.81
2023-05-11T14:40:19.528Z,101068.81
2023-05-11T14:42:47.464Z,101075.25
2023-05-11T14:45:15.463Z,101061.16
2023-05-11T14:47:43.531Z,101067.09
2023-05-11T14:50:11.953Z,101068.44
2023-05-11T14:52:39.871Z,101072.28
2023-05-11T14:55:08.807Z,101066.78
2023-05-11T14:57:38.140Z,101079.50
2023-05-11T15:00:07.302Z,101074.53
2023-05-11T15:02:35.324Z,101070.00
2023-05-11T15:05:03.278Z,101057.28
2023-05-11T15:07:31.156Z,101051.75
2023-05-11T15:10:01.665Z,101057.81
2023-05-11T15:12:31.187Z,101076.22
2023-05-11T15:15:00.768Z,101073.88
2023-05-11T15:17:28.743Z,101070.69
2023-05-11T15:19:56.729Z,101077.59
2023-05-11T15:22:24.616Z,101076.63
2023-05-11T15:24:52.535Z,101077.81
2023-05-11T15:27:20.420Z,101064.47
2023-05-11T15:29:48.432Z,101072.38
2023-05-11T15:32:18.168Z,101064.25
2023-05-11T15:34:58.622Z,101065.91
2023-05-11T15:37:27.558Z,101071.97
2023-05-11T15:39:55.513Z,101072.34
2023-05-11T15:42:23.419Z,101066.66
2023-05-11T15:44:51.344Z,101071.19
2023-05-11T15:47:20.693Z,101079.78
2023-05-11T15:49:48.682Z,101068.91
2023-05-11T15:52:16.660Z,101066.56
2023-05-11T15:54:44.605Z,101068.56
2023-05-11T15:57:12.530Z,101060.59
2023-05-11T15:59:40.426Z,101075.88
2023-05-11T16:02:08.544Z,101068.81
2023-05-11T16:04:37.811Z,101056.38
2023-05-11T16:07:06.005Z,101068.69
2023-05-11T16:09:33.927Z,101073.78
2023-05-11T16:12:02.089Z,101079.28
2023-05-11T16:14:29.981Z,101075.66
2023-05-11T16:16:57.974Z,101076.41
2023-05-11T16:19:27.794Z,101063.78
2023-05-11T16:21:57.178Z,101065.09
2023-05-11T16:24:25.136Z,101078.22
2023-05-11T16:26:53.023Z,101088.56
2023-05-11T16:29:21.020Z,101075.41
2023-05-11T16:31:49.090Z,101091.13
2023-05-11T16:34:17.152Z,101093.34
2023-05-11T16:36:45.146Z,101084.66
2023-05-11T16:39:14.618Z,101096.09
2023-05-11T16:41:42.472Z,101102.06
2023-05-11T16:44:10.428Z,101105.78
2023-05-11T16:46:38.912Z,101104.03
2023-05-11T16:49:07.178Z,101105.34
2023-05-11T16:51:35.126Z,101114.59
2023-05-11T16:54:03.236Z,101089.00
2023-05-11T16:56:32.574Z,101106.06
2023-05-11T16:59:00.494Z,101108.66
2023-05-11T17:01:28.552Z,101119.09
2023-05-11T17:03:56.596Z,101125.53
2023-05-11T17:06:26.724Z,101123.91
2023-05-11T17:08:54.833Z,101119.78
2023-05-11T17:11:22.788Z,101110.56
2023-05-11T17:13:52.116Z,101106.69
2023-05-11T17:16:20.140Z,101120.47
2023-05-11T17:18:48.194Z,101130.72
2023-05-11T17:21:16.897Z,101135.25
2023-05-11T17:23:45.119Z,101132.94
2023-05-11T17:26:13.904Z,101142.13
2023-05-11T17:28:41.968Z,101139.66
2023-05-11T17:31:12.853Z,101142.97
2023-05-11T17:33:41.926Z,101137.00
2023-05-11T17:36:11.777Z,101139.13
2023-05-11T17:38:39.682Z,101143.38
2023-05-11T17:41:08.181Z,101142.66
2023-05-11T17:43:38.164Z,101138.66
2023-05-11T17:46:06.792Z,101144.94
2023-05-11T17:48:36.346Z,101134.00
2023-05-11T17:51:04.293Z,101152.66
2023-05-11T17:53:32.564Z,101161.47
2023-05-11T17:56:01.118Z,101157.09
2023-05-11T17:58:29.014Z,101165.91
2023-05-11T18:00:56.913Z,101162.06
2023-05-11T18:03:25.123Z,101169.38
2023-05-11T18:05:55.817Z,101161.63
2023-05-11T18:08:24.120Z,101172.47
2023-05-11T18:10:52.109Z,101155.09
2023-05-11T18:13:20.346Z,101166.88
2023-05-11T18:15:48.823Z,101183.38
2023-05-11T18:18:17.933Z,101164.00
2023-05-11T18:20:46.533Z,101183.38
2023-05-11T18:23:16.034Z,101181.88
2023-05-11T18:25:44.247Z,101186.47
2023-05-11T18:28:12.255Z,101171.84
2023-05-11T18:30:40.298Z,101192.69
2023-05-11T18:33:08.426Z,101194.38
2023-05-11T18:35:38.989Z,101194.03
2023-05-11T18:38:07.533Z,101199.59
2023-05-11T18:40:37.866Z,101205.72
2023-05-11T18:43:06.022Z,101205.81
2023-05-11T18:45:35.067Z,101217.28
2023-05-11T18:48:03.821Z,101221.00
2023-05-11T18:50:31.886Z,101216.97
2023-05-11T18:53:00.039Z,101209.81
2023-05-11T18:55:30.978Z,101232.78
2023-05-11T18:58:01.621Z,101223.69
2023-05-11T19:00:31.239Z,101226.44
2023-05-11T19:02:59.254Z,101229.78
2023-05-11T19:05:27.276Z,101214.38
2023-05-11T19:07:55.177Z,101221.84
2023-05-11T19:10:24.513Z,101208.47
2023-05-11T19:12:52.560Z,101230.31
2023-05-11T19:15:21.930Z,101228.47
2023-05-11T19:17:49.872Z,101238.66
2023-05-11T19:20:18.157Z,101233.84
2023-05-11T19:22:46.201Z,101217.22
2023-05-11T19:25:14.158Z,101235.84
2023-05-11T19:27:42.058Z,101222.59
2023-05-11T19:30:10.797Z,101236.69
2023-05-11T19:32:41.746Z,101210.47
2023-05-11T19:35:11.756Z,101235.69
2023-05-11T19:37:39.657Z,101241.31
2023-05-11T19:40:37.980Z,101234.41
2023-05-11T19:42:56.635Z,101239.63
2023-05-11T19:45:24.832Z,101255.66
2023-05-11T19:47:54.177Z,101249.50
2023-05-11T19:50:24.441Z,101240.38
2023-05-11T19:52:54.485Z,101247.59
2023-05-11T19:55:22.404Z,101223.53
2023-05-11T19:57:50.419Z,101242.28
2023-05-11T20:00:20.466Z,101255.63
2023-05-11T20:02:48.811Z,101244.88
2023-05-11T20:05:18.340Z,101248.25
2023-05-11T20:07:46.496Z,101251.78
2023-05-11T20:10:14.412Z,101247.28
2023-05-11T20:12:42.370Z,101252.56
2023-05-11T20:15:11.545Z,101246.22
2023-05-11T20:17:39.765Z,101246.66
2023-05-11T20:20:09.417Z,101230.19
2023-05-11T20:22:39.191Z,101254.81
2023-05-11T20:25:17.078Z,101245.53
2023-05-11T20:27:46.519Z,101244.47
2023-05-11T20:30:15.063Z,101244.47
2023-05-11T20:34:06.911Z,101256.13
2023-05-11T20:35:31.150Z,101254.59
2023-05-11T20:38:00.478Z,101255.69
2023-05-11T20:40:28.460Z,101252.91
2023-05-11T20:42:56.350Z,101243.72
2023-05-11T20:45:24.273Z,101252.31
2023-05-11T20:47:52.400Z,101259.06
2023-05-11T20:50:20.706Z,101250.47
2023-05-11T20:52:48.780Z,101259.31
2023-05-11T20:55:18.446Z,101259.31
2023-05-11T20:57:46.634Z,101242.47
2023-05-11T21:00:16.123Z,101258.13
2023-05-11T21:02:44.165Z,101262.19
2023-05-11T21:05:12.131Z,101247.38
2023-05-11T21:07:40.211Z,101256.53
2023-05-11T21:10:08.890Z,101240.09
2023-05-11T21:12:38.186Z,101242.47
2023-05-11T21:15:07.258Z,101250.25
2023-05-11T21:17:35.808Z,101255.78
2023-05-11T21:20:05.133Z,101249.44
2023-05-11T21:22:33.528Z,101251.56
2023-05-11T21:25:01.564Z,101242.53
2023-05-11T21:27:29.422Z,101256.44
2023-05-11T21:29:58.745Z,101246.97
2023-05-11T21:32:26.700Z,101254.00
2023-05-11T21:34:54.594Z,101261.91
2023-05-11T21:37:22.519Z,101257.66
2023-05-11T21:39:50.553Z,101231.13
2023-05-11T21:42:18.559Z,101257.44
2023-05-11T21:44:46.503Z,101245.38
2023-05-11T21:47:16.022Z,101257.13
2023-05-11T21:49:43.927Z,101251.16
2023-05-11T21:52:12.295Z,101250.78
2023-05-11T21:54:40.200Z,101247.19
2023-05-11T21:57:08.098Z,101242.06
2023-05-11T21:59:36.211Z,101247.84
2023-05-11T22:02:04.696Z,101239.28
2023-05-11T22:04:34.583Z,101242.81
2023-05-11T22:07:02.460Z,101244.47
2023-05-11T22:09:31.623Z,101242.06
2023-05-11T22:11:59.698Z,101247.94
2023-05-11T22:14:27.660Z,101231.25
2023-05-11T22:16:55.551Z,101232.94
2023-05-11T22:19:23.471Z,101238.00
2023-05-11T22:21:53.236Z,101242.34
2023-05-11T22:24:21.658Z,101215.69
2023-05-11T22:26:49.916Z,101230.34
2023-05-11T22:29:17.901Z,101227.00
2023-05-11T22:31:46.453Z,101221.47
2023-05-11T22:34:14.444Z,101181.25
2023-05-11T22:36:42.326Z,101221.16
2023-05-11T22:39:12.365Z,101220.56
2023-05-11T22:41:40.324Z,101185.66
2023-05-11T22:44:09.432Z,101204.50
2023-05-11T22:46:37.404Z,101194.13
2023-05-11T22:49:05.290Z,101211.59
2023-05-11T22:51:33.184Z,101209.28
2023-05-11T22:54:01.085Z,101208.56
2023-05-11T22:56:30.648Z,101210.06
2023-05-11T22:58:59.933Z,101218.81
2023-05-11T23:01:28.062Z,101221.22
2023-05-11T23:03:56.029Z,101222.72
2023-05-11T23:06:23.932Z,101198.69
2023-05-11T23:08:51.955Z,101215.44
2023-05-11T23:11:20.000Z,101204.09
2023-05-11T23:13:49.264Z,101226.88
2023-05-11T23:16:17.782Z,101218.13
2023-05-11T23:18:46.001Z,101221.91
2023-05-11T23:21:13.971Z,101223.50
2023-05-11T23:23:42.975Z,101231.66
2023-05-11T23:26:10.982Z,101214.91
2023-05-11T23:28:38.852Z,101238.66
2023-05-11T23:31:08.181Z,101232.72
2023-05-11T23:33:36.084Z,101231.91
2023-05-11T23:36:04.006Z,101222.19
2023-05-11T23:38:31.894Z,101227.38
2023-05-11T23:40:59.889Z,101212.19
2023-05-11T23:43:28.326Z,101229.59
2023-05-11T23:45:57.625Z,101191.56
2023-05-11T23:48:26.966Z,101217.53
2023-05-11T23:50:54.849Z,101219.38
2023-05-11T23:53:22.905Z,101215.63
2023-05-11T23:55:50.923Z,101223.47
2023-05-11T23:58:18.813Z,101222.03
